createdAt,value
2022-09-12T00:03:01.834Z,99495.44
2022-09-12T00:08:04.735Z,99494.59
2022-09-12T00:13:09.483Z,99492.34
2022-09-12T00:18:15.814Z,99488.81
2022-09-12T00:23:18.527Z,99482.63
2022-09-12T00:28:22.586Z,99475.16
2022-09-12T00:33:25.321Z,99469.16
2022-09-12T00:38:28.012Z,99464.00
2022-09-12T00:43:40.736Z,99472.72
2022-09-12T00:48:45.754Z,99464.22
2022-09-12T00:53:50.194Z,99470.66
2022-09-12T00:58:58.158Z,99458.66
2022-09-12T01:04:01.329Z,99455.34
2022-09-12T01:09:05.206Z,99456.56
2022-09-12T01:14:10.113Z,99452.44
2022-09-12T01:19:26.705Z,99449.97
2022-09-12T01:24:43.191Z,99454.53
2022-09-12T01:30:04.498Z,99453.09
2022-09-12T01:35:16.735Z,99452.28
2022-09-12T01:40:23.306Z,99447.31
2022-09-12T01:45:29.882Z,99444.84
2022-09-12T01:50:37.140Z,99441.97
2022-09-12T01:55:43.436Z,99434.09
2022-09-12T02:00:49.448Z,99427.91
2022-09-12T02:05:56.416Z,99423.97
2022-09-12T02:11:01.715Z,99426.47
2022-09-12T02:16:08.713Z,99425.03
2022-09-12T02:21:13.213Z,99427.09
2022-09-12T02:26:22.374Z,99425.22
2022-09-12T02:31:30.864Z,99417.38
2022-09-12T02:36:40.610Z,99410.56
2022-09-12T02:41:43.389Z,99420.69
2022-09-12T02:46:48.598Z,99412.81
2022-09-12T02:51:52.666Z,99403.69
2022-09-12T02:56:55.440Z,99400.16
2022-09-12T03:02:07.077Z,99395.59
2022-09-12T03:07:17.276Z,99392.09
2022-09-12T03:12:28.023Z,99389.41
2022-09-12T03:17:36.440Z,99385.06
2022-09-12T03:22:47.089Z,99387.97
2022-09-12T03:27:57.191Z,99393.78
2022-09-12T03:32:59.870Z,99395.44
2022-09-12T03:38:03.945Z,99387.34
2022-09-12T03:43:07.908Z,99394.22
2022-09-12T03:48:10.620Z,99393.41
2022-09-12T03:53:17.264Z,99391.16
2022-09-12T03:58:20.303Z,99384.50
2022-09-12T04:03:22.986Z,99382.03
2022-09-12T04:08:27.242Z,99389.72
2022-09-12T04:13:29.873Z,99376.47
2022-09-12T04:18:33.452Z,99386.78
2022-09-12T04:23:37.933Z,99382.91
2022-09-12T04:28:41.061Z,99372.34
2022-09-12T04:33:43.766Z,99369.03
2022-09-12T04:38:48.999Z,99364.47
2022-09-12T04:43:54.540Z,99366.56
2022-09-12T04:48:57.347Z,99374.03
2022-09-12T04:54:02.704Z,99370.28
2022-09-12T04:59:05.426Z,99364.91
2022-09-12T05:04:08.171Z,99362.44
2022-09-12T05:09:14.145Z,99353.31
2022-09-12T05:14:16.875Z,99351.66
2022-09-12T05:19:19.879Z,99348.97
2022-09-12T05:24:24.603Z,99350.41
2022-09-12T05:29:27.323Z,99342.72
2022-09-12T05:34:30.056Z,99350.16
2022-09-12T05:39:34.177Z,99337.50
2022-09-12T05:44:36.954Z,99347.41
2022-09-12T05:49:39.643Z,99348.19
2022-09-12T05:54:43.922Z,99355.38
2022-09-12T05:59:46.576Z,99358.88
2022-09-12T06:04:49.408Z,99353.66
2022-09-12T06:09:53.667Z,99367.50
2022-09-12T06:14:56.496Z,99367.69
2022-09-12T06:19:59.238Z,99361.66
2022-09-12T06:25:03.324Z,99369.28
2022-09-12T06:30:07.466Z,99364.75
2022-09-12T06:35:10.332Z,99368.84
2022-09-12T06:40:14.492Z,99366.78
2022-09-12T06:45:19.887Z,99375.09
2022-09-12T06:50:22.595Z,99367.56
2022-09-12T06:55:27.856Z,99373.03
2022-09-12T07:00:31.310Z,99378.13
2022-09-12T07:05:35.122Z,99366.97
2022-09-12T07:10:39.160Z,99367.69
2022-09-12T07:15:41.897Z,99374.09
2022-09-12T07:20:44.659Z,99362.28
2022-09-12T07:25:57.074Z,99373.53
2022-09-12T07:31:02.533Z,99371.00
2022-09-12T07:36:06.575Z,99373.34
2022-09-12T07:41:14.336Z,99383.53
2022-09-12T07:46:17.035Z,99381.50
2022-09-12T07:51:20.242Z,99380.69
2022-09-12T07:56:29.375Z,99374.47
2022-09-12T08:01:33.139Z,99369.88
2022-09-12T08:06:36.966Z,99370.84
2022-09-12T08:11:41.077Z,99368.16
2022-09-12T08:16:44.518Z,99377.31
2022-09-12T08:21:47.273Z,99383.16
2022-09-12T08:26:51.415Z,99387.03
2022-09-12T08:31:57.281Z,99390.94
2022-09-12T08:37:00.221Z,99384.28
2022-09-12T08:42:06.183Z,99385.25
2022-09-12T08:47:21.062Z,99387.88
2022-09-12T08:52:28.270Z,99385.19
2022-09-12T08:57:32.468Z,99388.22
2022-09-12T09:02:53.631Z,99379.81
2022-09-12T09:08:15.554Z,99370.31
2022-09-12T09:13:45.623Z,99370.22
2022-09-12T09:18:49.540Z,99363.75
2022-09-12T09:23:56.042Z,99367.22
2022-09-12T09:29:03.245Z,99365.41
2022-09-12T09:34:11.959Z,99360.38
2022-09-12T09:39:22.253Z,99362.28
2022-09-12T09:44:36.527Z,99358.50
2022-09-12T09:49:39.707Z,99358.56
2022-09-12T09:54:45.963Z,99355.66
2022-09-12T09:59:50.029Z,99339.94
2022-09-12T10:04:55.754Z,99334.19
2022-09-12T10:10:07.511Z,99338.25
2022-09-12T10:15:21.306Z,99327.59
2022-09-12T10:20:32.705Z,99328.88
2022-09-12T10:25:35.484Z,99327.03
2022-09-12T10:30:40.094Z,99327.03
2022-09-12T10:35:48.627Z,99328.06
2022-09-12T10:40:58.028Z,99318.22
2022-09-12T10:46:29.015Z,99308.69
2022-09-12T10:51:31.835Z,99305.78
2022-09-12T10:56:37.580Z,99294.16
2022-09-12T11:01:44.229Z,99295.81
2022-09-12T11:06:57.393Z,99292.06
2022-09-12T11:12:06.056Z,99276.22
2022-09-12T11:17:19.821Z,99278.09
2022-09-12T11:22:37.170Z,99270.22
2022-09-12T11:27:53.538Z,99257.09
2022-09-12T11:33:09.219Z,99262.03
2022-09-12T11:38:43.163Z,99256.63
2022-09-12T11:43:49.219Z,99255.34
2022-09-12T11:48:56.793Z,99241.59
2022-09-12T11:54:05.111Z,99248.66
2022-09-12T11:59:14.874Z,99234.91
2022-09-12T12:04:22.967Z,99244.41
2022-09-12T12:09:25.823Z,99242.31
2022-09-12T12:14:32.873Z,99243.94
2022-09-12T12:19:38.059Z,99229.41
2022-09-12T12:24:55.800Z,99227.47
2022-09-12T12:29:58.693Z,99219.78
2022-09-12T12:35:42.742Z,99217.00
2022-09-12T12:40:45.529Z,99214.28
2022-09-12T12:46:12.875Z,99204.31
2022-09-12T12:51:45.053Z,99200.56
2022-09-12T12:56:49.995Z,99185.50
2022-09-12T13:01:58.777Z,99187.16
2022-09-12T13:07:11.273Z,99174.22
2022-09-12T13:12:21.060Z,99168.34
2022-09-12T13:17:28.373Z,99164.59
2022-09-12T13:22:51.087Z,99148.63
2022-09-12T13:28:04.799Z,99153.66
2022-09-12T13:33:16.504Z,99153.44
2022-09-12T13:38:35.246Z,99156.13
2022-09-12T13:43:41.169Z,99168.94
2022-09-12T13:48:45.244Z,99158.13
2022-09-12T13:53:50.876Z,99141.09
2022-09-12T13:58:57.863Z,99138.16
2022-09-12T14:04:21.168Z,99138.97
2022-09-12T14:09:28.870Z,99133.91
2022-09-12T14:14:35.989Z,99121.81
2022-09-12T14:19:38.792Z,99126.75
2022-09-12T14:24:42.952Z,99122.38
2022-09-12T14:29:46.080Z,99108.41
2022-09-12T14:35:19.790Z,99107.09
2022-09-12T14:40:24.818Z,99100.84
2022-09-12T14:45:30.919Z,99094.41
2022-09-12T14:50:36.484Z,99088.41
2022-09-12T14:55:46.574Z,99077.94
2022-09-12T15:00:57.733Z,99081.22
2022-09-12T15:06:02.780Z,99068.28
2022-09-12T15:11:07.579Z,99066.66
2022-09-12T15:16:11.503Z,99073.47
2022-09-12T15:21:18.603Z,99073.81
2022-09-12T15:26:24.427Z,99066.75
2022-09-12T15:31:28.913Z,99069.22
2022-09-12T15:36:31.911Z,99061.91
2022-09-12T15:41:37.860Z,99051.94
2022-09-12T15:46:41.035Z,99044.38
2022-09-12T15:51:43.752Z,99050.63
2022-09-12T15:56:47.836Z,99049.34
2022-09-12T16:01:50.637Z,99041.22
2022-09-12T16:06:54.184Z,99040.16
2022-09-12T16:11:58.311Z,99030.72
2022-09-12T16:17:01.713Z,99025.06
2022-09-12T16:22:04.415Z,99012.13
2022-09-12T16:27:08.561Z,99005.91
2022-09-12T16:32:11.422Z,99007.88
2022-09-12T16:37:14.196Z,99014.34
2022-09-12T16:42:19.264Z,98999.78
2022-09-12T16:47:22.092Z,99003.09
2022-09-12T16:52:28.385Z,98982.97
2022-09-12T16:57:39.546Z,98977.06
2022-09-12T17:02:44.984Z,98976.94
2022-09-12T17:07:50.163Z,98978.56
2022-09-12T17:12:54.467Z,98972.66
2022-09-12T17:18:00.307Z,98975.16
2022-09-12T17:23:09.489Z,98968.66
2022-09-12T17:28:18.649Z,98969.22
2022-09-12T17:33:24.825Z,98967.59
2022-09-12T17:38:28.670Z,98954.63
2022-09-12T17:43:33.481Z,98966.03
2022-09-12T17:48:36.490Z,98961.69
2022-09-12T17:53:39.289Z,98966.31
2022-09-12T17:58:43.363Z,98965.44
2022-09-12T18:03:46.459Z,98964.41
2022-09-12T18:08:49.214Z,98962.50
2022-09-12T18:13:53.304Z,98964.31
2022-09-12T18:19:01.339Z,98952.69
2022-09-12T18:24:05.388Z,98948.81
2022-09-12T18:29:09.605Z,98954.50
2022-09-12T18:34:13.823Z,98945.00
2022-09-12T18:39:17.861Z,98941.31
2022-09-12T18:44:21.938Z,98955.13
2022-09-12T18:49:24.719Z,98947.22
2022-09-12T18:54:27.420Z,98948.88
2022-09-12T18:59:31.519Z,98944.78
2022-09-12T19:04:34.240Z,98940.19
2022-09-12T19:09:36.974Z,98934.22
2022-09-12T19:14:41.091Z,98932.59
2022-09-12T19:19:43.770Z,98930.94
2022-09-12T19:24:46.512Z,98924.97
2022-09-12T19:29:50.623Z,98922.25
2022-09-12T19:34:53.370Z,98914.16
2022-09-12T19:39:56.628Z,98922.72
2022-09-12T19:45:00.801Z,98927.09
2022-09-12T19:50:03.686Z,98927.09
2022-09-12T19:55:07.230Z,98930.84
2022-09-12T20:00:12.855Z,98930.84
2022-09-12T20:05:15.610Z,98933.00
2022-09-12T20:10:18.512Z,98926.19
2022-09-12T20:15:22.541Z,98934.84
2022-09-12T20:20:26.640Z,98936.75
2022-09-12T20:25:29.373Z,98924.31
2022-09-12T20:30:33.443Z,98932.41
2022-09-12T20:35:36.138Z,98940.75
2022-09-12T20:40:38.819Z,98939.13
2022-09-12T20:45:42.924Z,98927.50
2022-09-12T20:50:45.696Z,98926.41
2022-09-12T20:55:51.553Z,98923.72
2022-09-12T21:00:55.643Z,98923.47
2022-09-12T21:05:58.786Z,98905.88
2022-09-12T21:11:02.083Z,98891.50
2022-09-12T21:16:07.901Z,98889.38
2022-09-12T21:21:11.374Z,98882.00
2022-09-12T21:26:14.063Z,98874.75
2022-09-12T21:31:18.279Z,98873.91
2022-09-12T21:36:21.016Z,98867.94
2022-09-12T21:41:23.849Z,98863.59
2022-09-12T21:46:28.031Z,98879.81
2022-09-12T21:51:30.934Z,98884.63
2022-09-12T21:56:33.700Z,98884.88
2022-09-12T22:01:37.881Z,98867.84
2022-09-12T22:06:40.629Z,98874.31
2022-09-12T22:11:43.839Z,98872.69
2022-09-12T22:16:48.000Z,98869.41
2022-09-12T22:22:07.535Z,98876.44
2022-09-12T22:27:10.350Z,98889.13
2022-09-12T22:32:14.588Z,98885.84
2022-09-12T22:37:17.834Z,98880.69
2022-09-12T22:42:20.571Z,98890.44
2022-09-12T22:47:24.763Z,98890.13
2022-09-12T22:52:29.632Z,98892.00
2022-09-12T22:57:32.345Z,98896.81
2022-09-12T23:02:36.369Z,98879.00
2022-09-12T23:07:39.092Z,98876.28
2022-09-12T23:12:41.784Z,98884.13
2022-09-12T23:17:45.860Z,98883.81
2022-09-12T23:22:50.964Z,98872.75
2022-09-12T23:27:53.960Z,98875.94
2022-09-12T23:32:58.183Z,98871.34
2022-09-12T23:38:00.855Z,98868.66
2022-09-12T23:43:03.526Z,98872.66
2022-09-12T23:48:07.686Z,98867.03
2022-09-12T23:53:10.747Z,98865.38
2022-09-12T23:58:14.792Z,98858.91
